sensor_id;sensor_type;location;lat;lon;timestamp;P1;durP1;ratioP1;P2;durP2;ratioP2
22490;SDS011;11412;50.802;4.350;2024-03-25T00:01:21;6.68;;;5.65;;
22490;SDS011;11412;50.802;4.350;2024-03-25T00:03:46;6.63;;;5.00;;
22490;SDS011;11412;50.802;4.350;2024-03-25T00:06:12;6.55;;;4.97;;
22490;SDS011;11412;50.802;4.350;2024-03-25T00:08:38;6.25;;;5.43;;
22490;SDS011;11412;50.802;4.350;2024-03-25T00:11:03;9.40;;;5.70;;
22490;SDS011;11412;50.802;4.350;2024-03-25T00:13:29;5.95;;;5.38;;
22490;SDS011;11412;50.802;4.350;2024-03-25T00:15:54;5.45;;;4.95;;
22490;SDS011;11412;50.802;4.350;2024-03-25T00:18:20;4.97;;;4.45;;
22490;SDS011;11412;50.802;4.350;2024-03-25T00:20:46;7.38;;;5.18;;
22490;SDS011;11412;50.802;4.350;2024-03-25T00:23:12;4.75;;;4.35;;
22490;SDS011;11412;50.802;4.350;2024-03-25T00:25:37;5.32;;;4.28;;
22490;SDS011;11412;50.802;4.350;2024-03-25T00:28:03;7.05;;;4.40;;
22490;SDS011;11412;50.802;4.350;2024-03-25T00:30:29;5.80;;;4.63;;
22490;SDS011;11412;50.802;4.350;2024-03-25T00:32:55;7.15;;;4.90;;
22490;SDS011;11412;50.802;4.350;2024-03-25T00:35:21;6.22;;;4.78;;
22490;SDS011;11412;50.802;4.350;2024-03-25T00:37:46;4.75;;;4.35;;
22490;SDS011;11412;50.802;4.350;2024-03-25T00:40:12;5.55;;;3.90;;
22490;SDS011;11412;50.802;4.350;2024-03-25T00:42:38;6.57;;;4.50;;
22490;SDS011;11412;50.802;4.350;2024-03-25T00:45:04;4.95;;;4.45;;
22490;SDS011;11412;50.802;4.350;2024-03-25T00:47:32;4.88;;;4.38;;
22490;SDS011;11412;50.802;4.350;2024-03-25T00:49:58;4.90;;;4.07;;
22490;SDS011;11412;50.802;4.350;2024-03-25T00:52:24;4.75;;;4.35;;
22490;SDS011;11412;50.802;4.350;2024-03-25T00:54:49;6.88;;;4.00;;
22490;SDS011;11412;50.802;4.350;2024-03-25T00:57:15;6.00;;;3.92;;
22490;SDS011;11412;50.802;4.350;2024-03-25T00:59:41;4.32;;;3.92;;
22490;SDS011;11412;50.802;4.350;2024-03-25T01:02:06;4.95;;;4.03;;
22490;SDS011;11412;50.802;4.350;2024-03-25T01:04:33;4.50;;;3.60;;
22490;SDS011;11412;50.802;4.350;2024-03-25T01:06:59;5.10;;;3.90;;
22490;SDS011;11412;50.802;4.350;2024-03-25T01:09:24;5.32;;;3.75;;
22490;SDS011;11412;50.802;4.350;2024-03-25T01:11:50;5.43;;;3.85;;
22490;SDS011;11412;50.802;4.350;2024-03-25T01:14:16;4.53;;;3.85;;
22490;SDS011;11412;50.802;4.350;2024-03-25T01:16:42;6.40;;;3.80;;
22490;SDS011;11412;50.802;4.350;2024-03-25T01:19:08;5.82;;;3.80;;
22490;SDS011;11412;50.802;4.350;2024-03-25T01:21:33;3.58;;;3.28;;
22490;SDS011;11412;50.802;4.350;2024-03-25T01:24:00;5.38;;;3.30;;
22490;SDS011;11412;50.802;4.350;2024-03-25T01:26:26;4.05;;;3.75;;
22490;SDS011;11412;50.802;4.350;2024-03-25T01:28:53;6.60;;;3.78;;
22490;SDS011;11412;50.802;4.350;2024-03-25T01:31:19;5.13;;;3.42;;
22490;SDS011;11412;50.802;4.350;2024-03-25T01:33:45;3.78;;;3.17;;
22490;SDS011;11412;50.802;4.350;2024-03-25T01:36:11;5.35;;;3.33;;
22490;SDS011;11412;50.802;4.350;2024-03-25T01:38:42;3.83;;;3.40;;
22490;SDS011;11412;50.802;4.350;2024-03-25T01:41:12;4.28;;;3.75;;
22490;SDS011;11412;50.802;4.350;2024-03-25T01:43:40;4.97;;;3.00;;
22490;SDS011;11412;50.802;4.350;2024-03-25T01:46:05;3.15;;;2.83;;
22490;SDS011;11412;50.802;4.350;2024-03-25T01:48:32;4.03;;;3.15;;
22490;SDS011;11412;50.802;4.350;2024-03-25T01:50:58;3.55;;;3.10;;
22490;SDS011;11412;50.802;4.350;2024-03-25T01:53:27;6.03;;;3.45;;
22490;SDS011;11412;50.802;4.350;2024-03-25T01:55:54;6.03;;;3.30;;
22490;SDS011;11412;50.802;4.350;2024-03-25T01:58:22;4.68;;;3.38;;
22490;SDS011;11412;50.802;4.350;2024-03-25T02:00:50;4.15;;;3.13;;
22490;SDS011;11412;50.802;4.350;2024-03-25T02:03:18;4.32;;;3.25;;
22490;SDS011;11412;50.802;4.350;2024-03-25T02:05:44;5.55;;;3.65;;
22490;SDS011;11412;50.802;4.350;2024-03-25T02:08:10;5.55;;;3.30;;
22490;SDS011;11412;50.802;4.350;2024-03-25T02:10:38;3.53;;;3.00;;
22490;SDS011;11412;50.802;4.350;2024-03-25T02:13:03;6.45;;;3.47;;
22490;SDS011;11412;50.802;4.350;2024-03-25T02:15:29;4.53;;;3.33;;
22490;SDS011;11412;50.802;4.350;2024-03-25T02:17:55;5.38;;;3.58;;
22490;SDS011;11412;50.802;4.350;2024-03-25T02:20:21;11.40;;;3.80;;
22490;SDS011;11412;50.802;4.350;2024-03-25T02:22:46;5.30;;;3.63;;
22490;SDS011;11412;50.802;4.350;2024-03-25T02:25:12;8.43;;;4.13;;
22490;SDS011;11412;50.802;4.350;2024-03-25T02:27:40;7.57;;;3.95;;
22490;SDS011;11412;50.802;4.350;2024-03-25T02:30:06;5.60;;;4.00;;
22490;SDS011;11412;50.802;4.350;2024-03-25T02:32:37;7.90;;;4.13;;
22490;SDS011;11412;50.802;4.350;2024-03-25T02:35:04;7.72;;;4.45;;
22490;SDS011;11412;50.802;4.350;2024-03-25T02:37:32;5.53;;;3.85;;
22490;SDS011;11412;50.802;4.350;2024-03-25T02:39:58;6.80;;;3.90;;
22490;SDS011;11412;50.802;4.350;2024-03-25T02:42:26;6.05;;;4.53;;
22490;SDS011;11412;50.802;4.350;2024-03-25T02:44:53;7.68;;;4.38;;
22490;SDS011;11412;50.802;4.350;2024-03-25T02:47:19;10.75;;;4.93;;
22490;SDS011;11412;50.802;4.350;2024-03-25T02:49:45;6.82;;;4.53;;
22490;SDS011;11412;50.802;4.350;2024-03-25T02:52:11;7.00;;;4.15;;
22490;SDS011;11412;50.802;4.350;2024-03-25T02:54:36;8.63;;;5.03;;
22490;SDS011;11412;50.802;4.350;2024-03-25T02:57:02;9.30;;;5.32;;
22490;SDS011;11412;50.802;4.350;2024-03-25T02:59:28;9.23;;;4.97;;
22490;SDS011;11412;50.802;4.350;2024-03-25T03:01:55;5.90;;;4.45;;
22490;SDS011;11412;50.802;4.350;2024-03-25T03:04:20;8.77;;;5.30;;
22490;SDS011;11412;50.802;4.350;2024-03-25T03:06:46;10.63;;;5.97;;
22490;SDS011;11412;50.802;4.350;2024-03-25T03:09:12;12.27;;;6.20;;
22490;SDS011;11412;50.802;4.350;2024-03-25T03:11:37;11.02;;;6.18;;
22490;SDS011;11412;50.802;4.350;2024-03-25T03:14:03;12.73;;;6.90;;
22490;SDS011;11412;50.802;4.350;2024-03-25T03:16:29;17.40;;;7.10;;
22490;SDS011;11412;50.802;4.350;2024-03-25T03:18:55;11.85;;;7.00;;
22490;SDS011;11412;50.802;4.350;2024-03-25T03:21:20;10.70;;;6.60;;
22490;SDS011;11412;50.802;4.350;2024-03-25T03:23:46;15.98;;;7.28;;
22490;SDS011;11412;50.802;4.350;2024-03-25T03:26:12;13.75;;;7.97;;
22490;SDS011;11412;50.802;4.350;2024-03-25T03:28:39;14.63;;;7.68;;
22490;SDS011;11412;50.802;4.350;2024-03-25T03:31:05;18.35;;;8.50;;
22490;SDS011;11412;50.802;4.350;2024-03-25T03:33:31;20.05;;;8.43;;
22490;SDS011;11412;50.802;4.350;2024-03-25T03:35:56;19.02;;;8.68;;
22490;SDS011;11412;50.802;4.350;2024-03-25T03:38:22;14.35;;;7.85;;
22490;SDS011;11412;50.802;4.350;2024-03-25T03:43:24;19.20;;;9.07;;
22490;SDS011;11412;50.802;4.350;2024-03-25T03:45:50;13.00;;;8.52;;
22490;SDS011;11412;50.802;4.350;2024-03-25T03:48:15;22.33;;;11.43;;
22490;SDS011;11412;50.802;4.350;2024-03-25T03:50:41;18.30;;;10.27;;
22490;SDS011;11412;50.802;4.350;2024-03-25T03:53:07;19.52;;;10.65;;
22490;SDS011;11412;50.802;4.350;2024-03-25T03:55:33;25.45;;;12.25;;
22490;SDS011;11412;50.802;4.350;2024-03-25T03:57:58;26.05;;;13.05;;
22490;SDS011;11412;50.802;4.350;2024-03-25T04:00:24;33.10;;;14.23;;
22490;SDS011;11412;50.802;4.350;2024-03-25T04:02:50;28.35;;;14.73;;
22490;SDS011;11412;50.802;4.350;2024-03-25T04:05:16;23.02;;;12.80;;
22490;SDS011;11412;50.802;4.350;2024-03-25T04:07:41;23.90;;;12.50;;
22490;SDS011;11412;50.802;4.350;2024-03-25T04:10:08;24.98;;;13.52;;
22490;SDS011;11412;50.802;4.350;2024-03-25T04:12:34;20.50;;;11.70;;
22490;SDS011;11412;50.802;4.350;2024-03-25T04:15:02;27.83;;;14.05;;
22490;SDS011;11412;50.802;4.350;2024-03-25T04:17:28;25.75;;;13.45;;
22490;SDS011;11412;50.802;4.350;2024-03-25T04:19:54;23.85;;;12.77;;
22490;SDS011;11412;50.802;4.350;2024-03-25T04:22:20;26.75;;;12.68;;
22490;SDS011;11412;50.802;4.350;2024-03-25T04:24:46;26.75;;;14.55;;
22490;SDS011;11412;50.802;4.350;2024-03-25T04:27:11;22.38;;;12.98;;
22490;SDS011;11412;50.802;4.350;2024-03-25T04:29:37;20.98;;;12.52;;
22490;SDS011;11412;50.802;4.350;2024-03-25T04:32:03;22.90;;;13.85;;
22490;SDS011;11412;50.802;4.350;2024-03-25T04:34:29;20.85;;;13.10;;
22490;SDS011;11412;50.802;4.350;2024-03-25T04:36:55;21.27;;;13.30;;
22490;SDS011;11412;50.802;4.350;2024-03-25T04:39:21;20.75;;;12.50;;
22490;SDS011;11412;50.802;4.350;2024-03-25T04:41:48;23.33;;;13.50;;
22490;SDS011;11412;50.802;4.350;2024-03-25T04:44:13;18.33;;;12.65;;
22490;SDS011;11412;50.802;4.350;2024-03-25T04:46:39;22.00;;;11.90;;
22490;SDS011;11412;50.802;4.350;2024-03-25T04:49:05;22.27;;;13.13;;
22490;SDS011;11412;50.802;4.350;2024-03-25T04:51:31;19.42;;;12.32;;
22490;SDS011;11412;50.802;4.350;2024-03-25T04:53:57;18.20;;;11.90;;
22490;SDS011;11412;50.802;4.350;2024-03-25T04:56:22;21.98;;;11.98;;
22490;SDS011;11412;50.802;4.350;2024-03-25T04:58:48;20.88;;;11.10;;
22490;SDS011;11412;50.802;4.350;2024-03-25T05:01:14;19.73;;;11.52;;
22490;SDS011;11412;50.802;4.350;2024-03-25T05:03:39;20.92;;;11.98;;
22490;SDS011;11412;50.802;4.350;2024-03-25T05:06:05;15.75;;;11.05;;
22490;SDS011;11412;50.802;4.350;2024-03-25T05:08:34;20.08;;;11.85;;
22490;SDS011;11412;50.802;4.350;2024-03-25T05:11:00;22.25;;;11.88;;
22490;SDS011;11412;50.802;4.350;2024-03-25T05:13:25;15.55;;;10.75;;
22490;SDS011;11412;50.802;4.350;2024-03-25T05:15:51;19.75;;;11.65;;
22490;SDS011;11412;50.802;4.350;2024-03-25T05:18:18;20.00;;;11.93;;
22490;SDS011;11412;50.802;4.350;2024-03-25T05:20:45;21.98;;;12.40;;
22490;SDS011;11412;50.802;4.350;2024-03-25T05:23:11;22.15;;;12.18;;
22490;SDS011;11412;50.802;4.350;2024-03-25T05:25:36;20.08;;;12.25;;
22490;SDS011;11412;50.802;4.350;2024-03-25T05:28:03;23.95;;;13.95;;
22490;SDS011;11412;50.802;4.350;2024-03-25T05:30:29;20.85;;;13.05;;
22490;SDS011;11412;50.802;4.350;2024-03-25T05:32:55;24.00;;;13.63;;
22490;SDS011;11412;50.802;4.350;2024-03-25T05:35:21;22.98;;;12.82;;
22490;SDS011;11412;50.802;4.350;2024-03-25T05:37:46;34.58;;;15.18;;
22490;SDS011;11412;50.802;4.350;2024-03-25T05:40:12;23.40;;;13.15;;
22490;SDS011;11412;50.802;4.350;2024-03-25T05:42:40;20.58;;;12.73;;
22490;SDS011;11412;50.802;4.350;2024-03-25T05:45:06;25.02;;;15.38;;
22490;SDS011;11412;50.802;4.350;2024-03-25T05:47:32;23.55;;;14.00;;
22490;SDS011;11412;50.802;4.350;2024-03-25T05:49:57;24.75;;;13.93;;
22490;SDS011;11412;50.802;4.350;2024-03-25T05:52:28;27.23;;;14.65;;
22490;SDS011;11412;50.802;4.350;2024-03-25T05:54:54;31.27;;;15.27;;
22490;SDS011;11412;50.802;4.350;2024-03-25T05:57:19;28.77;;;15.95;;
22490;SDS011;11412;50.802;4.350;2024-03-25T05:59:45;28.90;;;14.60;;
22490;SDS011;11412;50.802;4.350;2024-03-25T06:02:11;30.00;;;16.38;;
22490;SDS011;11412;50.802;4.350;2024-03-25T06:04:37;27.30;;;15.07;;
22490;SDS011;11412;50.802;4.350;2024-03-25T06:07:03;26.77;;;15.02;;
22490;SDS011;11412;50.802;4.350;2024-03-25T06:09:28;26.58;;;15.50;;
22490;SDS011;11412;50.802;4.350;2024-03-25T06:11:54;33.13;;;17.35;;
22490;SDS011;11412;50.802;4.350;2024-03-25T06:14:20;33.55;;;17.25;;
22490;SDS011;11412;50.802;4.350;2024-03-25T06:16:45;32.92;;;17.25;;
22490;SDS011;11412;50.802;4.350;2024-03-25T06:19:11;30.70;;;17.25;;
22490;SDS011;11412;50.802;4.350;2024-03-25T06:21:37;31.58;;;15.65;;
22490;SDS011;11412;50.802;4.350;2024-03-25T06:24:03;32.33;;;16.25;;
22490;SDS011;11412;50.802;4.350;2024-03-25T06:26:29;33.30;;;17.15;;
22490;SDS011;11412;50.802;4.350;2024-03-25T06:28:55;30.55;;;17.20;;
22490;SDS011;11412;50.802;4.350;2024-03-25T06:31:20;28.67;;;15.23;;
22490;SDS011;11412;50.802;4.350;2024-03-25T06:34:05;40.97;;;16.65;;
22490;SDS011;11412;50.802;4.350;2024-03-25T06:36:48;23.60;;;14.63;;
22490;SDS011;11412;50.802;4.350;2024-03-25T06:39:14;29.63;;;14.00;;
22490;SDS011;11412;50.802;4.350;2024-03-25T06:41:40;25.58;;;14.35;;
22490;SDS011;11412;50.802;4.350;2024-03-25T06:44:06;26.95;;;14.25;;
22490;SDS011;11412;50.802;4.350;2024-03-25T06:46:32;27.27;;;13.48;;
22490;SDS011;11412;50.802;4.350;2024-03-25T06:48:58;23.25;;;12.85;;
22490;SDS011;11412;50.802;4.350;2024-03-25T06:51:24;28.48;;;12.90;;
22490;SDS011;11412;50.802;4.350;2024-03-25T06:53:50;24.20;;;12.35;;
22490;SDS011;11412;50.802;4.350;2024-03-25T06:56:16;23.50;;;12.32;;
22490;SDS011;11412;50.802;4.350;2024-03-25T06:58:41;24.27;;;12.02;;
22490;SDS011;11412;50.802;4.350;2024-03-25T07:01:08;28.80;;;10.93;;
22490;SDS011;11412;50.802;4.350;2024-03-25T07:03:37;24.30;;;11.63;;
22490;SDS011;11412;50.802;4.350;2024-03-25T07:06:03;22.48;;;10.88;;
22490;SDS011;11412;50.802;4.350;2024-03-25T07:08:30;19.98;;;9.80;;
22490;SDS011;11412;50.802;4.350;2024-03-25T07:10:56;24.08;;;9.95;;
22490;SDS011;11412;50.802;4.350;2024-03-25T07:13:22;20.45;;;8.65;;
22490;SDS011;11412;50.802;4.350;2024-03-25T07:15:49;23.60;;;8.65;;
22490;SDS011;11412;50.802;4.350;2024-03-25T07:18:14;18.27;;;9.30;;
22490;SDS011;11412;50.802;4.350;2024-03-25T07:20:40;15.35;;;8.73;;
22490;SDS011;11412;50.802;4.350;2024-03-25T07:23:07;21.42;;;9.43;;
22490;SDS011;11412;50.802;4.350;2024-03-25T07:25:34;17.30;;;8.48;;
22490;SDS011;11412;50.802;4.350;2024-03-25T07:28:00;18.38;;;8.00;;
22490;SDS011;11412;50.802;4.350;2024-03-25T07:30:27;21.02;;;10.32;;
22490;SDS011;11412;50.802;4.350;2024-03-25T07:32:53;18.95;;;8.02;;
22490;SDS011;11412;50.802;4.350;2024-03-25T07:35:22;21.58;;;9.25;;
22490;SDS011;11412;50.802;4.350;2024-03-25T07:37:48;21.30;;;8.95;;
22490;SDS011;11412;50.802;4.350;2024-03-25T07:40:20;19.77;;;8.23;;
22490;SDS011;11412;50.802;4.350;2024-03-25T07:42:47;23.63;;;8.52;;
22490;SDS011;11412;50.802;4.350;2024-03-25T07:45:14;19.02;;;8.30;;
22490;SDS011;11412;50.802;4.350;2024-03-25T07:47:40;15.70;;;7.88;;
22490;SDS011;11412;50.802;4.350;2024-03-25T07:50:06;18.38;;;7.88;;
22490;SDS011;11412;50.802;4.350;2024-03-25T07:52:33;14.02;;;7.45;;
22490;SDS011;11412;50.802;4.350;2024-03-25T07:55:01;18.80;;;7.95;;
22490;SDS011;11412;50.802;4.350;2024-03-25T07:57:27;20.60;;;8.10;;
22490;SDS011;11412;50.802;4.350;2024-03-25T07:59:53;18.40;;;7.70;;
22490;SDS011;11412;50.802;4.350;2024-03-25T08:02:18;11.55;;;7.13;;
22490;SDS011;11412;50.802;4.350;2024-03-25T08:04:44;15.25;;;7.38;;
22490;SDS011;11412;50.802;4.350;2024-03-25T08:07:10;20.48;;;7.78;;
22490;SDS011;11412;50.802;4.350;2024-03-25T08:09:35;18.60;;;7.80;;
22490;SDS011;11412;50.802;4.350;2024-03-25T08:12:01;19.75;;;7.78;;
22490;SDS011;11412;50.802;4.350;2024-03-25T08:14:27;14.70;;;7.30;;
22490;SDS011;11412;50.802;4.350;2024-03-25T08:16:53;17.13;;;7.10;;
22490;SDS011;11412;50.802;4.350;2024-03-25T08:19:18;16.88;;;7.78;;
22490;SDS011;11412;50.802;4.350;2024-03-25T08:21:44;15.60;;;7.35;;
22490;SDS011;11412;50.802;4.350;2024-03-25T08:24:10;14.40;;;7.07;;
22490;SDS011;11412;50.802;4.350;2024-03-25T08:26:35;14.73;;;6.45;;
22490;SDS011;11412;50.802;4.350;2024-03-25T08:29:01;14.80;;;6.68;;
22490;SDS011;11412;50.802;4.350;2024-03-25T08:31:27;14.55;;;7.10;;
22490;SDS011;11412;50.802;4.350;2024-03-25T08:33:53;17.25;;;7.55;;
22490;SDS011;11412;50.802;4.350;2024-03-25T08:36:19;26.83;;;6.47;;
22490;SDS011;11412;50.802;4.350;2024-03-25T08:38:44;18.90;;;7.53;;
22490;SDS011;11412;50.802;4.350;2024-03-25T08:41:10;16.13;;;7.10;;
22490;SDS011;11412;50.802;4.350;2024-03-25T08:43:36;11.13;;;6.63;;
22490;SDS011;11412;50.802;4.350;2024-03-25T08:46:01;11.93;;;6.32;;
22490;SDS011;11412;50.802;4.350;2024-03-25T08:48:28;11.38;;;6.88;;
22490;SDS011;11412;50.802;4.350;2024-03-25T08:50:54;12.23;;;5.82;;
22490;SDS011;11412;50.802;4.350;2024-03-25T08:53:20;12.20;;;5.65;;
22490;SDS011;11412;50.802;4.350;2024-03-25T08:55:47;13.20;;;6.25;;
22490;SDS011;11412;50.802;4.350;2024-03-25T08:58:14;12.70;;;5.72;;
22490;SDS011;11412;50.802;4.350;2024-03-25T09:00:40;11.60;;;5.65;;
22490;SDS011;11412;50.802;4.350;2024-03-25T09:03:06;12.90;;;5.57;;
22490;SDS011;11412;50.802;4.350;2024-03-25T09:05:33;21.67;;;6.00;;
22490;SDS011;11412;50.802;4.350;2024-03-25T09:07:59;11.10;;;5.93;;
22490;SDS011;11412;50.802;4.350;2024-03-25T09:10:25;11.07;;;5.88;;
22490;SDS011;11412;50.802;4.350;2024-03-25T09:15:36;13.02;;;5.70;;
22490;SDS011;11412;50.802;4.350;2024-03-25T09:18:01;9.70;;;5.20;;
22490;SDS011;11412;50.802;4.350;2024-03-25T09:20:27;15.20;;;5.93;;
22490;SDS011;11412;50.802;4.350;2024-03-25T09:22:53;10.82;;;5.22;;
22490;SDS011;11412;50.802;4.350;2024-03-25T09:25:19;10.35;;;5.40;;
22490;SDS011;11412;50.802;4.350;2024-03-25T09:27:48;11.43;;;5.78;;
22490;SDS011;11412;50.802;4.350;2024-03-25T09:30:15;10.50;;;5.38;;
22490;SDS011;11412;50.802;4.350;2024-03-25T09:32:41;9.48;;;6.35;;
22490;SDS011;11412;50.802;4.350;2024-03-25T09:35:08;12.13;;;5.40;;
22490;SDS011;11412;50.802;4.350;2024-03-25T09:37:34;14.18;;;6.18;;
22490;SDS011;11412;50.802;4.350;2024-03-25T09:40:00;9.25;;;6.30;;
22490;SDS011;11412;50.802;4.350;2024-03-25T09:42:26;12.45;;;6.20;;
22490;SDS011;11412;50.802;4.350;2024-03-25T09:44:55;17.92;;;6.30;;
22490;SDS011;11412;50.802;4.350;2024-03-25T09:47:21;17.38;;;5.93;;
22490;SDS011;11412;50.802;4.350;2024-03-25T09:49:48;14.02;;;5.30;;
22490;SDS011;11412;50.802;4.350;2024-03-25T09:52:14;10.90;;;5.53;;
22490;SDS011;11412;50.802;4.350;2024-03-25T09:54:40;9.75;;;5.10;;
22490;SDS011;11412;50.802;4.350;2024-03-25T09:57:06;11.32;;;5.85;;
22490;SDS011;11412;50.802;4.350;2024-03-25T09:59:33;10.73;;;5.82;;
22490;SDS011;11412;50.802;4.350;2024-03-25T10:01:59;13.35;;;5.15;;
22490;SDS011;11412;50.802;4.350;2024-03-25T10:04:26;9.50;;;4.32;;
22490;SDS011;11412;50.802;4.350;2024-03-25T10:06:52;14.35;;;4.47;;
22490;SDS011;11412;50.802;4.350;2024-03-25T10:09:19;8.13;;;4.47;;
22490;SDS011;11412;50.802;4.350;2024-03-25T10:11:46;11.45;;;4.90;;
22490;SDS011;11412;50.802;4.350;2024-03-25T10:14:13;9.30;;;4.20;;
22490;SDS011;11412;50.802;4.350;2024-03-25T10:16:39;11.18;;;4.35;;
22490;SDS011;11412;50.802;4.350;2024-03-25T10:19:05;7.43;;;4.57;;
22490;SDS011;11412;50.802;4.350;2024-03-25T10:21:30;6.35;;;3.88;;
22490;SDS011;11412;50.802;4.350;2024-03-25T10:23:56;8.20;;;4.07;;
22490;SDS011;11412;50.802;4.350;2024-03-25T10:26:29;5.88;;;3.67;;
22490;SDS011;11412;50.802;4.350;2024-03-25T10:29:01;8.18;;;3.38;;
22490;SDS011;11412;50.802;4.350;2024-03-25T10:31:28;12.23;;;3.97;;
22490;SDS011;11412;50.802;4.350;2024-03-25T10:33:54;4.30;;;2.85;;
22490;SDS011;11412;50.802;4.350;2024-03-25T10:36:20;7.97;;;3.42;;
22490;SDS011;11412;50.802;4.350;2024-03-25T10:38:48;7.35;;;3.80;;
22490;SDS011;11412;50.802;4.350;2024-03-25T10:41:16;5.47;;;3.15;;
22490;SDS011;11412;50.802;4.350;2024-03-25T10:43:44;6.85;;;3.38;;
22490;SDS011;11412;50.802;4.350;2024-03-25T10:46:12;6.07;;;2.90;;
22490;SDS011;11412;50.802;4.350;2024-03-25T10:48:46;6.60;;;3.28;;
22490;SDS011;11412;50.802;4.350;2024-03-25T10:51:19;6.63;;;2.67;;
22490;SDS011;11412;50.802;4.350;2024-03-25T10:53:46;6.13;;;2.50;;
22490;SDS011;11412;50.802;4.350;2024-03-25T10:56:19;5.55;;;2.58;;
22490;SDS011;11412;50.802;4.350;2024-03-25T10:58:47;6.20;;;3.03;;
22490;SDS011;11412;50.802;4.350;2024-03-25T11:01:13;5.00;;;2.42;;
22490;SDS011;11412;50.802;4.350;2024-03-25T11:03:44;8.32;;;3.10;;
22490;SDS011;11412;50.802;4.350;2024-03-25T11:06:12;4.07;;;2.40;;
22490;SDS011;11412;50.802;4.350;2024-03-25T11:08:37;7.25;;;2.75;;
22490;SDS011;11412;50.802;4.350;2024-03-25T11:11:04;5.72;;;2.40;;
22490;SDS011;11412;50.802;4.350;2024-03-25T11:13:31;7.57;;;2.60;;
22490;SDS011;11412;50.802;4.350;2024-03-25T11:15:57;6.20;;;2.75;;
22490;SDS011;11412;50.802;4.350;2024-03-25T11:18:24;4.32;;;2.20;;
22490;SDS011;11412;50.802;4.350;2024-03-25T11:21:03;5.50;;;2.40;;
22490;SDS011;11412;50.802;4.350;2024-03-25T11:23:43;6.15;;;2.38;;
22490;SDS011;11412;50.802;4.350;2024-03-25T11:26:20;7.60;;;2.60;;
22490;SDS011;11412;50.802;4.350;2024-03-25T11:28:46;5.03;;;2.38;;
22490;SDS011;11412;50.802;4.350;2024-03-25T11:31:11;4.13;;;2.20;;
22490;SDS011;11412;50.802;4.350;2024-03-25T11:33:38;2.85;;;1.83;;
22490;SDS011;11412;50.802;4.350;2024-03-25T11:36:05;2.78;;;1.90;;
22490;SDS011;11412;50.802;4.350;2024-03-25T11:38:30;4.85;;;1.63;;
22490;SDS011;11412;50.802;4.350;2024-03-25T11:40:56;3.88;;;1.92;;
22490;SDS011;11412;50.802;4.350;2024-03-25T11:43:22;4.57;;;1.85;;
22490;SDS011;11412;50.802;4.350;2024-03-25T11:45:49;3.33;;;2.20;;
22490;SDS011;11412;50.802;4.350;2024-03-25T11:48:15;2.88;;;1.90;;
22490;SDS011;11412;50.802;4.350;2024-03-25T11:50:44;4.97;;;2.10;;
22490;SDS011;11412;50.802;4.350;2024-03-25T11:53:12;4.28;;;2.13;;
22490;SDS011;11412;50.802;4.350;2024-03-25T11:55:48;2.75;;;2.17;;
22490;SDS011;11412;50.802;4.350;2024-03-25T11:58:14;6.35;;;2.00;;
22490;SDS011;11412;50.802;4.350;2024-03-25T12:00:44;4.93;;;1.80;;
22490;SDS011;11412;50.802;4.350;2024-03-25T12:03:11;4.15;;;2.10;;
22490;SDS011;11412;50.802;4.350;2024-03-25T12:05:39;4.38;;;2.17;;
22490;SDS011;11412;50.802;4.350;2024-03-25T12:08:09;5.70;;;2.38;;
22490;SDS011;11412;50.802;4.350;2024-03-25T12:10:36;5.53;;;1.90;;
22490;SDS011;11412;50.802;4.350;2024-03-25T12:13:20;2.08;;;1.67;;
22490;SDS011;11412;50.802;4.350;2024-03-25T12:15:47;2.47;;;1.90;;
22490;SDS011;11412;50.802;4.350;2024-03-25T12:18:13;6.13;;;1.90;;
22490;SDS011;11412;50.802;4.350;2024-03-25T12:20:40;3.35;;;1.55;;
22490;SDS011;11412;50.802;4.350;2024-03-25T12:23:06;4.00;;;1.73;;
22490;SDS011;11412;50.802;4.350;2024-03-25T12:25:32;3.60;;;1.70;;
22490;SDS011;11412;50.802;4.350;2024-03-25T12:27:58;5.10;;;1.88;;
22490;SDS011;11412;50.802;4.350;2024-03-25T12:30:24;2.83;;;1.60;;
22490;SDS011;11412;50.802;4.350;2024-03-25T12:32:50;2.60;;;1.20;;
22490;SDS011;11412;50.802;4.350;2024-03-25T12:35:17;3.63;;;1.40;;
22490;SDS011;11412;50.802;4.350;2024-03-25T12:37:44;2.85;;;1.20;;
22490;SDS011;11412;50.802;4.350;2024-03-25T12:40:14;2.97;;;1.17;;
22490;SDS011;11412;50.802;4.350;2024-03-25T12:42:52;1.80;;;1.20;;
22490;SDS011;11412;50.802;4.350;2024-03-25T12:45:18;4.50;;;1.42;;
22490;SDS011;11412;50.802;4.350;2024-03-25T12:47:50;2.20;;;1.38;;
22490;SDS011;11412;50.802;4.350;2024-03-25T12:50:16;2.13;;;1.20;;
22490;SDS011;11412;50.802;4.350;2024-03-25T12:52:43;2.75;;;1.65;;
22490;SDS011;11412;50.802;4.350;2024-03-25T12:55:09;2.17;;;1.35;;
22490;SDS011;11412;50.802;4.350;2024-03-25T12:57:35;5.25;;;1.52;;
22490;SDS011;11412;50.802;4.350;2024-03-25T13:00:01;1.50;;;1.30;;
22490;SDS011;11412;50.802;4.350;2024-03-25T13:02:28;0.93;;;0.90;;
22490;SDS011;11412;50.802;4.350;2024-03-25T13:04:54;2.13;;;1.25;;
22490;SDS011;11412;50.802;4.350;2024-03-25T13:07:20;2.22;;;0.95;;
22490;SDS011;11412;50.802;4.350;2024-03-25T13:09:46;1.60;;;1.25;;
22490;SDS011;11412;50.802;4.350;2024-03-25T13:12:12;1.52;;;1.40;;
22490;SDS011;11412;50.802;4.350;2024-03-25T13:14:38;3.17;;;1.55;;
22490;SDS011;11412;50.802;4.350;2024-03-25T13:17:03;2.35;;;1.10;;
22490;SDS011;11412;50.802;4.350;2024-03-25T13:19:29;3.00;;;1.58;;
22490;SDS011;11412;50.802;4.350;2024-03-25T13:21:55;2.88;;;1.23;;
22490;SDS011;11412;50.802;4.350;2024-03-25T13:24:21;2.83;;;1.00;;
22490;SDS011;11412;50.802;4.350;2024-03-25T13:26:46;2.50;;;1.23;;
22490;SDS011;11412;50.802;4.350;2024-03-25T13:29:12;3.63;;;1.02;;
22490;SDS011;11412;50.802;4.350;2024-03-25T13:31:38;1.52;;;1.20;;
22490;SDS011;11412;50.802;4.350;2024-03-25T13:34:03;2.13;;;1.10;;
22490;SDS011;11412;50.802;4.350;2024-03-25T13:36:31;5.40;;;1.10;;
22490;SDS011;11412;50.802;4.350;2024-03-25T13:38:56;4.13;;;1.17;;
22490;SDS011;11412;50.802;4.350;2024-03-25T13:41:22;1.80;;;1.30;;
22490;SDS011;11412;50.802;4.350;2024-03-25T13:43:49;1.88;;;1.58;;
22490;SDS011;11412;50.802;4.350;2024-03-25T13:46:14;2.47;;;1.48;;
22490;SDS011;11412;50.802;4.350;2024-03-25T13:48:40;1.23;;;1.00;;
22490;SDS011;11412;50.802;4.350;2024-03-25T13:51:06;3.97;;;1.38;;
22490;SDS011;11412;50.802;4.350;2024-03-25T13:53:32;3.55;;;1.60;;
22490;SDS011;11412;50.802;4.350;2024-03-25T13:55:57;3.97;;;1.42;;
22490;SDS011;11412;50.802;4.350;2024-03-25T13:58:24;2.42;;;1.30;;
22490;SDS011;11412;50.802;4.350;2024-03-25T14:00:50;2.35;;;1.20;;
22490;SDS011;11412;50.802;4.350;2024-03-25T14:03:16;2.47;;;1.35;;
22490;SDS011;11412;50.802;4.350;2024-03-25T14:05:43;1.90;;;1.23;;
22490;SDS011;11412;50.802;4.350;2024-03-25T14:08:09;2.00;;;1.25;;
22490;SDS011;11412;50.802;4.350;2024-03-25T14:10:34;4.85;;;1.50;;
22490;SDS011;11412;50.802;4.350;2024-03-25T14:13:00;9.35;;;2.65;;
22490;SDS011;11412;50.802;4.350;2024-03-25T14:15:26;3.03;;;1.70;;
22490;SDS011;11412;50.802;4.350;2024-03-25T14:17:52;3.45;;;1.40;;
22490;SDS011;11412;50.802;4.350;2024-03-25T14:20:18;2.30;;;1.23;;
22490;SDS011;11412;50.802;4.350;2024-03-25T14:22:43;1.52;;;1.15;;
22490;SDS011;11412;50.802;4.350;2024-03-25T14:25:09;4.00;;;1.80;;
22490;SDS011;11412;50.802;4.350;2024-03-25T14:27:34;1.40;;;1.20;;
22490;SDS011;11412;50.802;4.350;2024-03-25T14:30:00;1.58;;;1.10;;
22490;SDS011;11412;50.802;4.350;2024-03-25T14:32:26;3.33;;;1.25;;
22490;SDS011;11412;50.802;4.350;2024-03-25T14:34:52;1.70;;;1.33;;
22490;SDS011;11412;50.802;4.350;2024-03-25T14:37:17;3.17;;;1.30;;
22490;SDS011;11412;50.802;4.350;2024-03-25T14:39:43;1.13;;;1.00;;